Time;durP1;ratioP1;P1;durP2;ratioP2;P2;SDS_P1;SDS_P2;PMS_P1;PMS_P2;Temp;Humidity;BMP_temperature;BMP_pressure;BME280_temperature;BME280_humidity;BME280_pressure;Samples;Min_cycle;Max_cycle;Signal;HPM_P1;HPM_P2
2022/03/15 00:00:50;;;;;;;1.88;1.02;;;;;;;-142.75;100.00;78917.41;5014922;28;20106;-68
2022/03/15 00:03:16;;;;;;;2.05;0.90;;;;;;;-142.75;100.00;78927.25;5013150;28;20022;-72
2022/03/15 00:05:41;;;;;;;3.28;1.45;;;;;;;-142.75;100.00;78939.06;5018060;28;20112;-68
2022/03/15 00:08:07;;;;;;;2.65;1.15;;;;;;;-142.75;100.00;78941.03;5022351;28;20158;-69
2022/03/15 00:10:33;;;;;;;;;;;;;;;-142.75;100.00;78943.00;5014712;28;20079;-68
2022/03/15 00:12:58;;;;;;;3.07;1.50;;;;;;;-142.75;100.00;78935.13;5022062;28;19925;-67
2022/03/15 00:15:25;;;;;;;1.27;1.00;;;;;;;-142.75;100.00;78931.19;5028901;28;20049;-67
2022/03/15 00:17:50;;;;;;;2.10;1.33;;;;;;;-142.75;100.00;78927.25;5012402;28;20105;-79
2022/03/15 00:20:20;;;;;;;1.40;1.00;;;;;;;-142.75;100.00;78923.31;5020719;28;20117;-68
2022/03/15 00:22:47;;;;;;;2.30;1.50;;;;;;;-142.75;100.00;78913.47;5017721;28;20026;-71
2022/03/15 00:25:17;;;;;;;4.07;0.90;;;;;;;-142.75;100.00;78901.66;5017745;28;20025;-68
2022/03/15 00:27:46;;;;;;;4.37;1.47;;;;;;;-142.75;100.00;78901.66;5018439;28;20099;-69
2022/03/15 00:30:12;;;;;;;2.80;1.37;;;;;;;-142.75;100.00;78895.75;5015355;28;20071;-68
2022/03/15 00:32:38;;;;;;;3.70;1.33;;;;;;;-142.75;100.00;78889.81;5021182;28;20399;-71
2022/03/15 00:35:08;;;;;;;1.50;0.80;;;;;;;-142.75;100.00;78885.88;5014808;28;20029;-68
2022/03/15 00:37:36;;;;;;;2.50;1.20;;;;;;;-142.75;100.00;78889.81;5028202;28;20108;-68
2022/03/15 00:40:02;;;;;;;1.37;0.97;;;;;;;-142.75;100.00;78901.66;5025994;28;20060;-68
2022/03/15 00:42:27;;;;;;;;;;;;;;;-142.75;100.00;78893.78;5012103;28;20030;-68
2022/03/15 00:44:53;;;;;;;2.87;1.00;;;;;;;-142.75;100.00;78895.75;5018524;28;20371;-73
2022/03/15 00:47:18;;;;;;;1.60;1.10;;;;;;;-142.75;100.00;78895.75;5029049;28;20060;-68
2022/03/15 00:49:43;;;;;;;1.52;1.20;;;;;;;-142.75;100.00;78891.78;5021399;28;20458;-69
2022/03/15 00:52:08;;;;;;;2.60;1.02;;;;;;;-142.75;100.00;78897.72;5019391;28;20021;-68
2022/03/15 00:54:34;;;;;;;1.80;0.97;;;;;;;-142.75;100.00;78903.63;5023448;28;20040;-70
2022/03/15 00:56:59;;;;;;;4.40;2.03;;;;;;;-142.75;100.00;78905.59;5011618;28;20276;-68
2022/03/15 00:59:24;;;;;;;2.80;1.13;;;;;;;-142.75;100.00;78907.56;5014199;28;20029;-68
2022/03/15 01:01:50;;;;;;;3.35;1.13;;;;;;;-142.75;100.00;78907.56;5016857;28;20377;-72
2022/03/15 01:04:15;;;;;;;0.95;0.70;;;;;;;-142.75;100.00;78907.56;5011638;28;20060;-68
2022/03/15 01:06:42;;;;;;;1.80;1.13;;;;;;;-142.75;100.00;78907.56;5011473;28;20084;-70
2022/03/15 01:09:09;;;;;;;1.80;1.13;;;;;;;-142.75;100.00;78905.59;5022736;28;20134;-68
2022/03/15 01:11:34;;;;;;;3.83;1.50;;;;;;;-142.75;100.00;78897.72;5009959;28;20065;-68
2022/03/15 01:13:59;;;;;;;2.30;1.27;;;;;;;-142.75;100.00;78897.72;5027862;28;20049;-76
2022/03/15 01:16:24;;;;;;;2.97;0.70;;;;;;;-142.75;100.00;78889.81;5020945;28;20119;-67
2022/03/15 01:18:50;;;;;;;2.23;1.53;;;;;;;-142.75;100.00;78891.78;5020231;28;20268;-68
2022/03/15 01:21:16;;;;;;;0.90;0.63;;;;;;;-142.75;100.00;78893.78;5024049;28;20689;-71
2022/03/15 01:23:41;;;;;;;1.00;0.70;;;;;;;-142.75;100.00;78887.84;5030563;28;20017;-69
2022/03/15 01:26:07;;;;;;;2.78;1.50;;;;;;;-142.75;100.00;78885.88;5030758;28;20475;-67
2022/03/15 01:28:32;;;;;;;2.25;1.10;;;;;;;-142.75;100.00;78874.06;5030596;28;20026;-68
2022/03/15 01:30:58;;;;;;;2.80;1.35;;;;;;;-142.75;100.00;78874.06;5014184;28;20479;-71
2022/03/15 01:33:23;;;;;;;2.88;0.75;;;;;;;-142.75;100.00;78864.22;5013854;28;20052;-67
2022/03/15 01:35:49;;;;;;;2.25;1.02;;;;;;;-142.75;100.00;78846.50;5030678;28;20021;-68
2022/03/15 01:38:14;;;;;;;2.53;1.33;;;;;;;-142.75;100.00;78838.63;5030480;28;20435;-69
2022/03/15 01:40:39;;;;;;;1.83;1.10;;;;;;;-142.75;100.00;78842.56;5030679;28;20052;-68
2022/03/15 01:43:05;;;;;;;4.38;1.48;;;;;;;-142.75;100.00;78842.56;5017603;28;20033;-70
2022/03/15 01:45:36;;;;;;;3.83;1.10;;;;;;;-142.75;100.00;78842.56;5029319;28;20036;-68
2022/03/15 01:48:03;;;;;;;1.67;1.00;;;;;;;-142.75;100.00;78854.38;5030241;28;20506;-68
2022/03/15 01:50:29;;;;;;;1.50;1.00;;;;;;;-142.75;100.00;78866.19;5030237;28;20060;-68
2022/03/15 01:52:55;;;;;;;1.15;1.00;;;;;;;-142.75;100.00;78878.00;5010902;28;20030;-67
2022/03/15 01:55:20;;;;;;;4.90;1.42;;;;;;;-142.75;100.00;78874.06;5010559;28;20037;-68
2022/03/15 01:57:47;;;;;;;3.05;1.30;;;;;;;-142.75;100.00;78881.94;5027406;28;20036;-69
2022/03/15 02:00:14;;;;;;;2.83;1.17;;;;;;;-142.75;100.00;78883.91;5012245;28;20026;-68
2022/03/15 02:02:39;;;;;;;2.03;1.00;;;;;;;-142.75;100.00;78885.88;5017412;28;20525;-68
2022/03/15 02:05:05;;;;;;;2.63;1.10;;;;;;;-142.75;100.00;78885.88;5010354;28;20097;-68
2022/03/15 02:07:30;;;;;;;2.60;1.58;;;;;;;-142.75;100.00;78893.78;5026777;28;20049;-72
2022/03/15 02:09:56;;;;;;;1.23;1.02;;;;;;;-142.75;100.00;78897.72;5021831;28;20025;-68
2022/03/15 02:12:22;;;;;;;3.63;1.40;;;;;;;-142.75;100.00;78889.81;5029867;28;20036;-67
2022/03/15 02:14:47;;;;;;;2.25;1.38;;;;;;;-142.75;100.00;78887.84;5030015;28;20026;-69
2022/03/15 02:17:12;;;;;;;3.03;1.53;;;;;;;-142.75;100.00;78878.00;5012059;28;20070;-68
2022/03/15 02:19:38;;;;;;;1.60;1.00;;;;;;;-142.75;100.00;78874.06;5029611;28;20022;-68
2022/03/15 02:22:04;;;;;;;1.75;1.08;;;;;;;-142.75;100.00;78874.06;5022532;28;20391;-68
2022/03/15 02:24:29;;;;;;;2.50;1.48;;;;;;;-142.75;100.00;78862.25;5029742;28;20044;-68
2022/03/15 02:26:55;;;;;;;4.30;2.35;;;;;;;-142.75;100.00;78850.44;5029573;28;20022;-68
2022/03/15 02:29:21;;;;;;;2.92;1.20;;;;;;;-142.75;100.00;78858.31;5010988;28;20021;-68
2022/03/15 02:31:48;;;;;;;2.87;1.00;;;;;;;-142.75;100.00;78866.19;5009930;28;20022;-68
2022/03/15 02:34:14;;;;;;;3.07;1.20;;;;;;;-142.75;100.00;78864.22;5009829;28;20033;-69
2022/03/15 02:36:39;;;;;;;;;;;;;;;-142.75;100.00;78854.38;5010468;28;20176;-67
2022/03/15 02:39:05;;;;;;;3.03;1.00;;;;;;;-142.75;100.00;78846.50;5012357;28;20004;-69
2022/03/15 02:41:30;;;;;;;1.75;1.15;;;;;;;-142.75;100.00;78846.50;5029556;28;20037;-68
2022/03/15 02:43:58;;;;;;;2.38;1.17;;;;;;;-142.75;100.00;78840.59;5029200;28;20029;-69
2022/03/15 02:46:30;;;;;;;3.63;1.20;;;;;;;-142.75;100.00;78830.75;5029438;28;20323;-69
2022/03/15 02:48:57;;;;;;;1.97;1.13;;;;;;;-142.75;100.00;78834.69;5028114;28;20025;-68
2022/03/15 02:51:22;;;;;;;4.17;1.13;;;;;;;-142.75;100.00;78832.72;5015421;28;20040;-67
2022/03/15 02:53:51;;;;;;;2.00;1.23;;;;;;;-142.75;100.00;78822.88;5010022;28;20014;-71
2022/03/15 02:56:16;;;;;;;3.67;1.60;;;;;;;-142.75;100.00;78814.97;5009721;28;20026;-68
2022/03/15 02:58:41;;;;;;;2.22;1.30;;;;;;;-142.75;100.00;78813.00;5007968;28;20041;-69
2022/03/15 03:01:08;;;;;;;6.95;2.38;;;;;;;-142.75;100.00;78813.00;5017034;28;20472;-68
2022/03/15 03:03:34;;;;;;;;;;;;;;;-142.75;100.00;78818.91;5029772;28;20027;-68
2022/03/15 03:05:59;;;;;;;2.83;1.30;;;;;;;-142.75;100.00;78828.78;5029107;28;19938;-68
2022/03/15 03:08:27;;;;;;;3.45;1.25;;;;;;;-142.75;100.00;78818.91;5028944;28;20107;-72
2022/03/15 03:10:54;;;;;;;2.70;1.33;;;;;;;-142.75;100.00;78814.97;5024097;28;20506;-72
2022/03/15 03:13:24;;;;;;;2.70;1.50;;;;;;;-142.75;100.00;78816.94;5020302;28;20060;-68
2022/03/15 03:15:50;;;;;;;4.53;2.37;;;;;;;-142.75;100.00;78818.91;5013690;28;20117;-66
2022/03/15 03:18:15;;;;;;;6.40;1.63;;;;;;;-142.75;100.00;78818.91;5012031;28;20104;-72
2022/03/15 03:20:41;;;;;;;2.95;1.63;;;;;;;-142.75;100.00;78818.91;5013487;28;20068;-68
2022/03/15 03:23:07;;;;;;;4.57;1.80;;;;;;;-142.75;100.00;78820.88;5016115;28;20450;-68
2022/03/15 03:25:35;;;;;;;;;;;;;;;-142.75;100.00;78826.81;5013721;28;20114;-72
2022/03/15 03:28:01;;;;;;;3.83;1.90;;;;;;;-142.75;100.00;78818.91;5012976;28;19913;-67
2022/03/15 03:30:29;;;;;;;3.30;2.13;;;;;;;-142.75;100.00;78816.94;5012062;28;20022;-68
2022/03/15 03:32:54;;;;;;;5.03;2.00;;;;;;;-142.75;100.00;78814.97;5031461;28;20037;-69
2022/03/15 03:35:20;;;;;;;3.45;1.80;;;;;;;-142.75;100.00;78811.03;5031593;28;20035;-66
2022/03/15 03:37:45;;;;;;;3.65;2.15;;;;;;;-142.75;100.00;78803.16;5026080;28;20036;-68
2022/03/15 03:40:10;;;;;;;3.15;1.65;;;;;;;-142.75;100.00;78799.22;5013236;28;20033;-67
2022/03/15 03:42:36;;;;;;;2.97;1.63;;;;;;;-142.75;100.00;78795.28;5012902;28;20018;-68
2022/03/15 03:45:03;;;;;;;5.30;2.17;;;;;;;-142.75;100.00;78801.19;5011814;28;20029;-69
2022/03/15 03:47:28;;;;;;;4.67;1.87;;;;;;;-142.75;100.00;78791.34;5018404;28;20021;-68
2022/03/15 03:49:53;;;;;;;4.40;2.30;;;;;;;-142.75;100.00;78795.28;5023608;28;20088;-68
2022/03/15 03:52:18;;;;;;;4.40;1.93;;;;;;;-142.75;100.00;78785.44;5012878;28;20273;-66
2022/03/15 03:54:44;;;;;;;4.57;2.40;;;;;;;-142.75;100.00;78783.47;5027893;28;20343;-70
2022/03/15 03:57:09;;;;;;;4.80;2.03;;;;;;;-142.75;100.00;78785.44;5026842;28;20036;-68
2022/03/15 03:59:34;;;;;;;3.92;2.17;;;;;;;-142.75;100.00;78779.53;5026197;28;20021;-69
2022/03/15 04:02:00;;;;;;;3.70;1.95;;;;;;;-142.75;100.00;78767.72;5012555;28;20025;-68
2022/03/15 04:04:26;;;;;;;3.27;2.37;;;;;;;-142.75;100.00;78765.75;5017962;28;20033;-68
2022/03/15 04:06:51;;;;;;;4.90;2.42;;;;;;;-142.75;100.00;78769.69;5032090;28;20283;-68
2022/03/15 04:09:17;;;;;;;3.38;2.00;;;;;;;-142.75;100.00;78765.75;5032443;28;20029;-71
2022/03/15 04:11:42;;;;;;;4.60;2.70;;;;;;;-142.75;100.00;78767.72;5021509;28;20041;-68
2022/03/15 04:14:10;;;;;;;3.83;2.40;;;;;;;-142.75;100.00;78765.75;5012566;28;20514;-70
2022/03/15 04:16:37;;;;;;;2.80;1.60;;;;;;;-142.75;100.00;78767.72;5019523;28;20050;-68
2022/03/15 04:19:02;;;;;;;3.70;2.10;;;;;;;-142.75;100.00;78771.66;5017826;28;20033;-68
2022/03/15 04:21:28;;;;;;;4.78;1.90;;;;;;;-142.75;100.00;78771.66;5011793;28;20033;-70
2022/03/15 04:23:55;;;;;;;7.13;2.85;;;;;;;-142.75;100.00;78781.50;5028067;28;20021;-68
2022/03/15 04:26:21;;;;;;;3.87;2.30;;;;;;;-142.75;100.00;78775.59;5030550;28;20045;-69
2022/03/15 04:28:47;;;;;;;4.43;2.60;;;;;;;-142.75;100.00;78773.63;5020201;28;20022;-67
2022/03/15 04:31:12;;;;;;;2.95;1.58;;;;;;;-142.75;100.00;78771.66;5010740;28;20037;-71
2022/03/15 04:33:38;;;;;;;4.07;2.05;;;;;;;-142.75;100.00;78775.59;5012085;28;20044;-68
2022/03/15 04:36:03;;;;;;;6.53;2.42;;;;;;;-142.75;100.00;78773.63;5030956;28;20084;-69
2022/03/15 04:38:29;;;;;;;4.10;2.10;;;;;;;-142.75;100.00;78775.59;5031290;28;20104;-68
2022/03/15 04:40:54;;;;;;;5.60;2.15;;;;;;;-142.75;100.00;78775.59;5030613;28;20155;-67
2022/03/15 04:43:19;;;;;;;3.13;1.80;;;;;;;-142.75;100.00;78771.66;5030177;28;20025;-68
2022/03/15 04:45:45;;;;;;;4.50;2.92;;;;;;;-142.75;100.00;78793.31;5031474;28;20037;-75
2022/03/15 04:48:10;;;;;;;4.95;2.45;;;;;;;-142.75;100.00;78797.25;5031460;28;20445;-68
2022/03/15 04:50:36;;;;;;;4.50;2.20;;;;;;;-142.75;100.00;78795.28;5031548;28;20461;-72
2022/03/15 04:53:01;;;;;;;5.90;2.80;;;;;;;-142.75;100.00;78795.28;5017578;28;20025;-68
2022/03/15 04:55:26;;;;;;;3.78;2.35;;;;;;;-142.75;100.00;78793.31;5015938;28;20080;-67
2022/03/15 04:57:52;;;;;;;2.83;1.88;;;;;;;-142.75;100.00;78793.31;5010262;28;20021;-65
2022/03/15 05:00:18;;;;;;;4.63;2.20;;;;;;;-142.75;100.00;78787.41;5018604;28;20025;-67
2022/03/15 05:02:44;;;;;;;4.80;1.90;;;;;;;-142.75;100.00;78803.16;5014238;28;20377;-68
2022/03/15 05:05:10;;;;;;;4.05;2.33;;;;;;;-142.75;100.00;78805.13;5011336;28;20084;-68
2022/03/15 05:07:35;;;;;;;3.70;1.90;;;;;;;-142.75;100.00;78799.22;5011405;28;20021;-68
2022/03/15 05:12:45;;;;;;;5.07;2.30;;;;;;;-142.75;100.00;78799.22;5030873;28;20040;-67
2022/03/15 05:15:11;;;;;;;3.58;2.05;;;;;;;-142.75;100.00;78797.25;5016809;28;20022;-68
2022/03/15 05:17:36;;;;;;;3.63;2.30;;;;;;;-142.75;100.00;78791.34;5010016;28;20029;-68
2022/03/15 05:20:05;;;;;;;5.55;2.80;;;;;;;-142.75;100.00;78785.44;5023329;28;20029;-71
2022/03/15 05:22:31;;;;;;;7.67;3.13;;;;;;;-142.75;100.00;78781.50;5055874;22;20563;-66
2022/03/15 05:24:57;;;;;;;5.57;2.43;;;;;;;-142.75;100.00;78779.53;5029692;28;20067;-66
2022/03/15 05:27:23;;;;;;;4.68;2.63;;;;;;;-142.75;100.00;78771.66;5049737;28;20056;-67
2022/03/15 05:29:48;;;;;;;;;;;;;;;-142.75;100.00;78773.63;5050970;28;20032;-66
2022/03/15 05:32:13;;;;;;;7.30;3.67;;;;;;;-142.75;100.00;78771.66;5049984;28;19924;-66
2022/03/15 05:34:38;;;;;;;4.67;3.23;;;;;;;-142.75;100.00;78769.69;5050320;28;20036;-66
2022/03/15 05:37:04;;;;;;;9.80;3.37;;;;;;;-142.75;100.00;78769.69;5050533;28;20362;-66
2022/03/15 05:39:29;;;;;;;4.50;2.73;;;;;;;-142.75;100.00;78767.72;5050156;28;20283;-66
2022/03/15 05:41:54;;;;;;;4.80;2.00;;;;;;;-142.75;100.00;78777.56;5050183;28;20804;-67
2022/03/15 05:44:20;;;;;;;6.40;3.07;;;;;;;-142.75;100.00;78773.63;5051622;28;20290;-66
2022/03/15 05:46:45;;;;;;;7.50;3.30;;;;;;;-142.75;100.00;78771.66;5050328;28;20288;-66
2022/03/15 05:49:10;;;;;;;8.47;3.10;;;;;;;-142.75;100.00;78763.78;5051434;28;20317;-66
2022/03/15 05:51:35;;;;;;;5.47;3.17;;;;;;;-142.75;100.00;78761.81;5051403;28;20275;-67
2022/03/15 05:54:01;;;;;;;4.72;2.88;;;;;;;-142.75;100.00;78761.81;5051489;28;20029;-66
2022/03/15 05:56:26;;;;;;;5.05;3.05;;;;;;;-142.75;100.00;78759.84;5051535;28;20510;-66
2022/03/15 05:58:51;;;;;;;9.55;3.80;;;;;;;-142.75;100.00;78757.88;5051098;28;20509;-65
2022/03/15 06:01:17;;;;;;;4.70;2.75;;;;;;;-142.75;100.00;78755.91;5051317;28;20509;-66
2022/03/15 06:03:42;;;;;;;6.22;3.35;;;;;;;-142.75;100.00;78759.84;5051114;28;20064;-66
2022/03/15 06:06:08;;;;;;;4.85;3.50;;;;;;;-142.75;100.00;78759.84;5051297;28;20037;-66
2022/03/15 06:08:33;;;;;;;5.57;3.75;;;;;;;-142.75;100.00;78763.78;5050944;28;20048;-66
2022/03/15 06:11:00;;;;;;;5.53;2.88;;;;;;;-142.75;100.00;78751.97;5051198;28;20036;-66
2022/03/15 06:13:26;;;;;;;9.27;4.77;;;;;;;-142.75;100.00;78751.97;5050916;28;20036;-66
2022/03/15 06:15:51;;;;;;;8.30;4.20;;;;;;;-142.75;100.00;78755.91;5049070;28;20486;-66
2022/03/15 06:18:16;;;;;;;5.03;3.23;;;;;;;-142.75;100.00;78757.88;5030922;28;20022;-66
2022/03/15 06:20:41;;;;;;;8.18;3.80;;;;;;;-142.75;100.00;78755.91;5030999;28;20295;-66
2022/03/15 06:23:07;;;;;;;5.63;3.17;;;;;;;-142.75;100.00;78755.91;5030871;28;20020;-66
2022/03/15 06:25:32;;;;;;;7.90;3.67;;;;;;;-142.75;100.00;78755.91;5031015;28;20696;-66
2022/03/15 06:27:58;;;;;;;11.75;3.75;;;;;;;-142.75;100.00;78751.97;5030823;28;20437;-66
2022/03/15 06:30:24;;;;;;;8.00;3.38;;;;;;;-142.75;100.00;78751.97;5030838;28;20066;-66
2022/03/15 06:32:49;;;;;;;9.57;4.07;;;;;;;-142.75;100.00;78753.94;5030982;28;20014;-66
2022/03/15 06:35:15;;;;;;;8.80;3.45;;;;;;;-142.75;100.00;78746.03;5030904;28;20048;-66
2022/03/15 06:37:45;;;;;;;6.45;3.13;;;;;;;-142.75;100.00;78744.09;5030996;28;20036;-66
2022/03/15 06:40:22;;;;;;;6.40;3.00;;;;;;;-142.75;100.00;78751.97;5032056;28;20030;-66
2022/03/15 06:42:47;;;;;;;5.40;2.78;;;;;;;-142.75;100.00;78759.84;5030737;28;20630;-66
2022/03/15 06:45:13;;;;;;;7.00;3.22;;;;;;;-142.75;100.00;78761.81;5030774;28;20033;-66
2022/03/15 06:47:39;;;;;;;5.20;2.90;;;;;;;-142.75;100.00;78769.69;5030776;28;20453;-66
2022/03/15 06:50:08;;;;;;;5.60;3.22;;;;;;;-142.75;100.00;78767.72;5030456;28;20028;-66
2022/03/15 06:52:34;;;;;;;5.57;3.00;;;;;;;-142.75;100.00;78761.81;5030499;28;20440;-66
2022/03/15 06:54:59;;;;;;;7.57;2.65;;;;;;;-142.75;100.00;78757.88;5030735;28;20037;-66
2022/03/15 06:57:24;;;;;;;6.53;3.20;;;;;;;-142.75;100.00;78757.88;5030580;28;20110;-66
2022/03/15 06:59:50;;;;;;;4.95;3.28;;;;;;;-142.75;100.00;78755.91;5029095;28;20028;-66
2022/03/15 07:02:15;;;;;;;6.82;3.00;;;;;;;-142.75;100.00;78755.91;5030512;28;20435;-66
2022/03/15 07:04:41;;;;;;;5.85;2.97;;;;;;;-142.75;100.00;78746.03;5030466;28;20104;-66
2022/03/15 07:07:06;;;;;;;5.53;3.33;;;;;;;-142.75;100.00;78755.91;5030591;28;20029;-65
2022/03/15 07:09:32;;;;;;;6.65;3.63;;;;;;;-142.75;100.00;78753.94;5030189;28;20437;-67
2022/03/15 07:11:57;;;;;;;6.90;3.10;;;;;;;-142.75;100.00;78755.91;5030381;28;20036;-66
2022/03/15 07:14:22;;;;;;;6.70;3.47;;;;;;;-142.75;100.00;78755.91;5029253;28;20033;-66
2022/03/15 07:16:48;;;;;;;3.85;2.40;;;;;;;-142.75;100.00;78759.84;5029343;28;20013;-66
2022/03/15 07:19:13;;;;;;;9.50;3.67;;;;;;;-142.75;100.00;78769.69;5031222;28;20052;-66
2022/03/15 07:21:39;;;;;;;7.38;2.80;;;;;;;-142.75;100.00;78773.63;5030095;28;20033;-67
2022/03/15 07:24:05;;;;;;;5.73;2.63;;;;;;;-142.75;100.00;78757.88;5030197;28;20048;-67
2022/03/15 07:26:32;;;;;;;5.22;2.95;;;;;;;-142.75;100.00;78748.03;5029221;28;20104;-66
2022/03/15 07:28:57;;;;;;;4.80;2.60;;;;;;;-142.75;100.00;78740.13;5029180;28;20029;-66
2022/03/15 07:31:23;;;;;;;5.50;3.55;;;;;;;-142.75;100.00;78736.19;5029542;28;20031;-65
2022/03/15 07:33:48;;;;;;;8.13;3.42;;;;;;;-142.75;100.00;78728.31;5029476;28;20021;-66
2022/03/15 07:36:14;;;;;;;8.67;5.77;;;;;;;-142.75;100.00;78722.41;5029401;28;20095;-66
2022/03/15 07:38:39;;;;;;;10.70;5.47;;;;;;;-142.75;100.00;78710.59;5028036;28;20036;-66
2022/03/15 07:41:04;;;;;;;6.00;3.33;;;;;;;-142.75;100.00;78708.63;5029322;28;20096;-66
2022/03/15 07:43:30;;;;;;;7.50;3.30;;;;;;;-142.75;100.00;78704.69;5047839;28;20024;-65
2022/03/15 07:45:55;;;;;;;6.78;3.28;;;;;;;-142.75;100.00;78694.84;5047752;28;20302;-66
2022/03/15 07:48:21;;;;;;;5.82;3.10;;;;;;;-142.75;100.00;78700.75;5049510;28;20066;-65
2022/03/15 07:50:47;;;;;;;8.23;3.55;;;;;;;-142.75;100.00;78688.94;5029649;28;20026;-65
2022/03/15 07:53:12;;;;;;;9.05;3.45;;;;;;;-142.75;100.00;78686.97;5030398;28;20025;-66
2022/03/15 07:55:38;;;;;;;6.00;3.40;;;;;;;-142.75;100.00;78681.06;5028190;28;20490;-65
2022/03/15 07:58:04;;;;;;;5.38;2.90;;;;;;;-142.75;100.00;78679.09;5032818;28;20025;-66
2022/03/15 08:00:30;;;;;;;7.68;3.65;;;;;;;-142.75;100.00;78665.28;5032951;28;20070;-66
2022/03/15 08:02:55;;;;;;;11.05;3.70;;;;;;;-142.75;100.00;78665.28;5032612;28;20037;-65
2022/03/15 08:05:21;;;;;;;14.23;5.63;;;;;;;-142.75;100.00;78659.38;5032938;28;20630;-66
2022/03/15 08:07:46;;;;;;;;;;;;;;;-142.75;100.00;78663.31;5031767;28;20025;-66
2022/03/15 08:10:12;;;;;;;9.20;4.93;;;;;;;-142.75;100.00;78663.31;5032532;28;20267;-66
2022/03/15 08:12:39;;;;;;;11.88;5.68;;;;;;;-142.75;100.00;78669.25;5034121;28;20519;-66
2022/03/15 08:15:06;;;;;;;10.87;4.50;;;;;;;-142.75;100.00;78673.19;5034076;28;20506;-66
2022/03/15 08:17:32;;;;;;;9.27;4.60;;;;;;;-142.75;100.00;78671.22;5032447;28;20395;-66
2022/03/15 08:19:58;;;;;;;;;;;;;;;-142.75;100.00;78671.22;5032720;28;20026;-66
2022/03/15 08:22:25;;;;;;;8.27;3.50;;;;;;;-142.75;100.00;78671.22;5032195;28;19917;-66
2022/03/15 08:24:50;;;;;;;7.73;3.70;;;;;;;-142.75;100.00;78677.13;5032348;28;20656;-64
2022/03/15 08:27:16;;;;;;;5.10;3.37;;;;;;;-142.75;100.00;78671.22;5032607;28;20136;-65
2022/03/15 08:29:41;;;;;;;5.78;3.08;;;;;;;-142.75;100.00;78669.25;5032071;28;20284;-65
2022/03/15 08:32:06;;;;;;;5.85;3.90;;;;;;;-142.75;100.00;78653.47;5032560;28;20017;-65
2022/03/15 08:34:33;;;;;;;9.43;3.63;;;;;;;-142.75;100.00;78647.56;5030820;28;20398;-66
2022/03/15 08:36:58;;;;;;;12.13;4.95;;;;;;;-142.75;100.00;78641.66;5032288;28;20026;-68
2022/03/15 08:39:24;;;;;;;7.68;3.60;;;;;;;-142.75;100.00;78639.69;5031798;28;20436;-68
2022/03/15 08:41:51;;;;;;;7.55;4.10;;;;;;;-142.75;100.00;78639.69;5031872;28;20021;-68
2022/03/15 08:44:18;;;;;;;8.83;3.93;;;;;;;-142.75;100.00;78629.84;5030541;28;20049;-67
2022/03/15 08:46:45;;;;;;;7.13;3.60;;;;;;;-142.75;100.00;78623.94;5030858;28;20026;-67
2022/03/15 08:49:10;;;;;;;9.17;4.07;;;;;;;-142.75;100.00;78637.72;5031752;28;20022;-67
2022/03/15 08:51:35;;;;;;;6.65;3.85;;;;;;;-142.75;100.00;78633.78;5031918;28;20375;-67
2022/03/15 08:54:01;;;;;;;6.20;3.67;;;;;;;-142.75;100.00;78625.91;5033786;28;20037;-68
2022/03/15 08:56:26;;;;;;;6.78;3.15;;;;;;;-142.75;100.00;78620.00;5051808;28;20076;-67
2022/03/15 08:58:51;;;;;;;8.48;4.15;;;;;;;-142.75;100.00;78620.00;5050208;28;20554;-67
2022/03/15 09:01:17;;;;;;;6.40;2.90;;;;;;;-142.75;100.00;78620.00;5051707;28;20441;-68
2022/03/15 09:03:42;;;;;;;4.60;2.78;;;;;;;-142.75;100.00;78623.94;5042361;28;20037;-67
2022/03/15 09:06:07;;;;;;;7.10;3.38;;;;;;;-142.75;100.00;78616.06;5023263;28;20021;-67
2022/03/15 09:08:33;;;;;;;5.95;3.40;;;;;;;-142.75;100.00;78606.22;5028884;28;20025;-67
2022/03/15 09:10:58;;;;;;;5.70;3.53;;;;;;;-142.75;100.00;78592.44;5031597;28;20057;-67
2022/03/15 09:13:23;;;;;;;5.57;3.25;;;;;;;-142.75;100.00;78598.34;5032267;28;20029;-67
2022/03/15 09:15:49;;;;;;;6.93;3.15;;;;;;;-142.75;100.00;78586.53;5029984;28;20028;-67
2022/03/15 09:18:15;;;;;;;5.28;2.67;;;;;;;-142.75;100.00;78582.59;5028420;28;20033;-66
2022/03/15 09:20:42;;;;;;;8.67;3.70;;;;;;;-142.75;100.00;78574.69;5031148;28;20387;-67
2022/03/15 09:23:08;;;;;;;5.83;3.17;;;;;;;-142.75;100.00;78560.91;5032057;28;20501;-66
2022/03/15 09:25:34;;;;;;;6.38;3.60;;;;;;;-142.75;100.00;78549.09;5032190;28;20025;-67
2022/03/15 09:27:59;;;;;;;7.13;3.83;;;;;;;-142.75;100.00;78539.25;5032460;28;20028;-66
2022/03/15 09:30:24;;;;;;;9.65;3.50;;;;;;;-142.75;100.00;78531.38;5032382;28;20055;-67
2022/03/15 09:32:50;;;;;;;8.45;4.47;;;;;;;-142.75;100.00;78513.66;5032474;28;20025;-66
2022/03/15 09:35:18;;;;;;;10.52;3.80;;;;;;;-142.75;100.00;78495.94;5031003;28;20033;-67
2022/03/15 09:37:46;;;;;;;5.87;3.63;;;;;;;-142.75;100.00;78484.09;5032142;28;20036;-67
2022/03/15 09:40:11;;;;;;;6.05;3.58;;;;;;;-142.75;100.00;78472.28;5031847;28;20021;-66
2022/03/15 09:42:37;;;;;;;8.65;4.05;;;;;;;-142.75;100.00;78468.34;5031875;28;20075;-66
2022/03/15 09:45:04;;;;;;;4.55;3.15;;;;;;;-142.75;100.00;78458.50;5032050;28;20087;-66
2022/03/15 09:47:32;;;;;;;5.03;2.93;;;;;;;-142.75;100.00;78446.69;5031904;28;20037;-66
2022/03/15 09:50:03;;;;;;;9.10;4.35;;;;;;;-142.75;100.00;78442.75;5030298;28;20103;-66
2022/03/15 09:52:28;;;;;;;10.05;4.00;;;;;;;-142.75;100.00;78444.72;5031735;28;20036;-66
2022/03/15 09:54:55;;;;;;;10.02;3.83;;;;;;;-142.75;100.00;78446.69;5031910;28;20402;-67
2022/03/15 09:57:21;;;;;;;5.97;3.13;;;;;;;-142.75;100.00;78440.78;5031743;28;20029;-67
2022/03/15 09:59:50;;;;;;;9.30;2.78;;;;;;;-142.75;100.00;78440.78;5031815;28;20112;-66
2022/03/15 10:02:15;;;;;;;6.67;3.07;;;;;;;-142.75;100.00;78417.16;5031557;28;20083;-66
2022/03/15 10:04:41;;;;;;;5.75;3.17;;;;;;;-142.75;100.00;78405.34;5031907;28;20706;-66
2022/03/15 10:07:08;;;;;;;6.63;2.85;;;;;;;-142.75;100.00;78391.53;5031659;28;20032;-66
2022/03/15 10:09:34;;;;;;;6.57;2.97;;;;;;;-142.75;100.00;78395.47;5031006;28;20021;-67
2022/03/15 10:11:59;;;;;;;6.10;3.03;;;;;;;-142.75;100.00;78399.44;5031941;28;20018;-67
2022/03/15 10:14:24;;;;;;;3.22;2.17;;;;;;;-142.75;100.00;78415.19;5031519;28;20038;-67
2022/03/15 10:16:50;;;;;;;4.78;2.65;;;;;;;-142.75;100.00;78405.34;5031774;28;20017;-67
2022/03/15 10:19:16;;;;;;;4.22;2.50;;;;;;;-142.75;100.00;78393.50;5029665;28;20471;-67
2022/03/15 10:21:47;;;;;;;6.78;3.28;;;;;;;-142.75;100.00;78373.81;5029976;28;20025;-67
2022/03/15 10:24:18;;;;;;;9.23;4.05;;;;;;;-142.75;100.00;78358.06;5031837;28;20639;-67
2022/03/15 10:26:46;;;;;;;5.38;2.85;;;;;;;-142.75;100.00;78346.25;5030373;28;20025;-67
2022/03/15 10:29:13;;;;;;;5.13;3.00;;;;;;;-142.75;100.00;78334.44;5029970;28;20079;-66
2022/03/15 10:31:39;;;;;;;4.18;2.45;;;;;;;-142.75;100.00;78300.97;5030220;28;20032;-67
2022/03/15 10:34:07;;;;;;;6.13;3.00;;;;;;;-142.75;100.00;78261.56;5030279;28;20399;-66
2022/03/15 10:36:42;;;;;;;8.15;3.30;;;;;;;-142.75;100.00;78222.19;5031055;28;20094;-67
2022/03/15 10:39:10;;;;;;;5.63;2.80;;;;;;;-142.75;100.00;78182.81;5030188;28;20034;-67
2022/03/15 10:41:45;;;;;;;7.07;2.92;;;;;;;-142.75;100.00;78151.28;5030869;28;20275;-68
2022/03/15 10:44:15;;;;;;;5.45;3.17;;;;;;;-142.75;100.00;78076.47;5030951;28;20029;-67
2022/03/15 10:46:40;;;;;;;5.07;2.20;;;;;;;-142.75;100.00;78025.25;5029491;28;20033;-67
2022/03/15 10:49:05;;;;;;;5.30;2.75;;;;;;;-142.75;100.00;78001.63;5031197;28;20542;-67
2022/03/15 10:51:31;;;;;;;4.53;2.33;;;;;;;-142.75;100.00;77968.16;5031241;28;20039;-67
2022/03/15 10:54:04;;;;;;;3.65;2.20;;;;;;;-142.75;100.00;77889.38;5030696;28;20018;-67
2022/03/15 10:56:31;;;;;;;2.95;1.88;;;;;;;-142.75;100.00;77814.56;5030720;28;20026;-67
2022/03/15 10:59:03;;;;;;;6.07;2.05;;;;;;;-142.75;100.00;77735.81;5029768;28;20028;-66
2022/03/15 11:01:37;;;;;;;4.88;2.50;;;;;;;-142.75;100.00;77653.09;5030240;28;20053;-67
2022/03/15 11:04:06;;;;;;;5.90;2.70;;;;;;;-142.75;100.00;77596.00;5030511;28;20038;-67
2022/03/15 11:06:44;;;;;;;5.55;2.38;;;;;;;-142.75;100.00;77533.00;5030376;28;20032;-68
2022/03/15 11:09:25;;;;;;;5.72;2.30;;;;;;;-142.75;100.00;77483.78;5030080;28;20136;-68